createdAt,value
2019-04-06T00:00:13.808Z,56.90
2019-04-06T00:02:45.823Z,57.11
2019-04-06T00:05:17.248Z,57.34
2019-04-06T00:07:49.657Z,58.41
2019-04-06T00:10:22.296Z,59.02
2019-04-06T00:12:56.605Z,58.87
2019-04-06T00:15:29.194Z,58.71
2019-04-06T00:18:00.745Z,59.24
2019-04-06T00:20:33.650Z,59.45
2019-04-06T00:23:05.093Z,59.83
2019-04-06T00:25:44.194Z,60.07
2019-04-06T00:28:12.304Z,60.83
2019-04-06T00:30:48.080Z,60.62
2019-04-06T00:33:23.949Z,60.76
2019-04-06T00:35:57.703Z,60.96
2019-04-06T00:38:29.267Z,60.97
2019-04-06T00:41:02.140Z,61.15
2019-04-06T00:43:33.593Z,61.56
2019-04-06T00:46:05.063Z,61.75
2019-04-06T00:48:36.495Z,61.63
2019-04-06T00:51:07.958Z,61.75
2019-04-06T00:53:39.400Z,62.45
2019-04-06T00:56:10.854Z,65.29
2019-04-06T00:58:42.297Z,62.16
2019-04-06T01:01:14.984Z,57.88
2019-04-06T01:03:46.429Z,50.77
2019-04-06T01:06:19.103Z,50.44
2019-04-06T01:08:51.787Z,51.14
2019-04-06T01:11:24.467Z,51.78
2019-04-06T01:13:57.163Z,52.36
2019-04-06T01:16:28.594Z,53.42
2019-04-06T01:19:00.124Z,53.73
2019-04-06T01:21:32.733Z,55.00
2019-04-06T01:24:05.409Z,55.43
2019-04-06T01:26:38.086Z,55.89
2019-04-06T01:29:10.776Z,55.90
2019-04-06T01:31:43.446Z,56.93
2019-04-06T01:34:16.130Z,57.69
2019-04-06T01:36:48.811Z,57.94
2019-04-06T01:39:21.489Z,58.61
2019-04-06T01:41:54.171Z,59.38
2019-04-06T01:44:25.703Z,59.86
2019-04-06T01:46:58.308Z,60.80
2019-04-06T01:49:30.989Z,60.70
2019-04-06T01:52:03.666Z,61.27
2019-04-06T01:54:36.350Z,61.37
2019-04-06T01:57:07.785Z,61.30
2019-04-06T01:59:40.473Z,61.61
2019-04-06T02:02:20.737Z,61.24
2019-04-06T02:04:53.522Z,62.58
2019-04-06T02:07:26.189Z,65.54
2019-04-06T02:09:58.891Z,60.81
2019-04-06T02:12:31.870Z,54.54
2019-04-06T02:15:04.349Z,50.65
2019-04-06T02:17:35.693Z,51.01
2019-04-06T02:20:08.437Z,51.24
2019-04-06T02:22:41.063Z,51.97
2019-04-06T02:25:12.495Z,52.39
2019-04-06T02:27:45.186Z,53.07
2019-04-06T02:30:23.903Z,53.58
2019-04-06T02:32:58.462Z,54.56
2019-04-06T02:35:30.676Z,55.99
2019-04-06T02:38:08.167Z,57.06
2019-04-06T02:40:57.679Z,57.54
2019-04-06T02:43:32.103Z,57.94
2019-04-06T02:46:03.581Z,59.25
2019-04-06T02:48:36.936Z,60.12
2019-04-06T02:51:08.848Z,60.44
2019-04-06T02:53:41.491Z,62.04
2019-04-06T02:56:12.918Z,61.26
2019-04-06T02:58:45.824Z,61.76
2019-04-06T03:01:18.281Z,62.28
2019-04-06T03:03:51.037Z,65.93
2019-04-06T03:06:23.764Z,63.03
2019-04-06T03:08:57.879Z,56.64
2019-04-06T03:11:30.548Z,50.97
2019-04-06T03:14:04.336Z,51.40
2019-04-06T03:16:37.120Z,51.93
2019-04-06T03:19:10.735Z,52.97
2019-04-06T03:21:43.410Z,54.06
2019-04-06T03:24:16.120Z,54.78
2019-04-06T03:27:00.694Z,55.44
2019-04-06T03:29:23.328Z,56.46
2019-04-06T03:31:56.280Z,57.27
2019-04-06T03:34:29.301Z,58.60
2019-04-06T03:37:02.277Z,59.06
2019-04-06T03:39:34.931Z,60.57
2019-04-06T03:42:10.428Z,61.33
2019-04-06T03:44:40.947Z,61.98
2019-04-06T03:47:12.362Z,61.51
2019-04-06T03:49:45.038Z,61.99
2019-04-06T03:52:16.563Z,67.36
2019-04-06T03:54:50.538Z,64.29
2019-04-06T03:57:23.698Z,60.52
2019-04-06T03:59:56.375Z,52.04
2019-04-06T04:02:29.380Z,51.60
2019-04-06T04:05:00.826Z,52.19
2019-04-06T04:07:33.840Z,52.91
2019-04-06T04:10:07.213Z,54.47
2019-04-06T04:12:39.771Z,54.73
2019-04-06T04:15:12.795Z,56.73
2019-04-06T04:17:45.452Z,56.75
2019-04-06T04:20:16.916Z,58.41
2019-04-06T04:22:49.879Z,58.97
2019-04-06T04:25:22.570Z,59.63
2019-04-06T04:27:56.469Z,60.61
2019-04-06T04:30:32.873Z,61.04
2019-04-06T04:33:04.763Z,61.13
2019-04-06T04:35:37.666Z,62.31
2019-04-06T04:38:10.392Z,65.23
2019-04-06T04:40:43.269Z,60.10
2019-04-06T04:43:14.710Z,54.75
2019-04-06T04:45:47.472Z,54.62
2019-04-06T04:48:21.122Z,54.90
2019-04-06T04:50:54.284Z,56.10
2019-04-06T04:53:27.886Z,56.67
2019-04-06T04:56:00.594Z,57.98
2019-04-06T04:58:32.025Z,58.09
2019-04-06T05:01:03.485Z,58.54
2019-04-06T05:03:34.916Z,59.35
2019-04-06T05:06:07.603Z,59.55
2019-04-06T05:08:40.415Z,60.32
2019-04-06T05:11:13.271Z,60.48
2019-04-06T05:13:45.946Z,61.10
2019-04-06T05:16:18.756Z,61.36
2019-04-06T05:18:51.604Z,61.68
2019-04-06T05:21:26.733Z,61.94
2019-04-06T05:23:59.419Z,61.89
2019-04-06T05:26:37.413Z,61.34
2019-04-06T05:29:06.732Z,60.74
2019-04-06T05:31:39.343Z,60.15
2019-04-06T05:34:11.688Z,59.01
2019-04-06T05:36:44.410Z,57.64
2019-04-06T05:39:16.737Z,55.95
2019-04-06T05:41:50.781Z,54.37
2019-04-06T05:44:24.557Z,52.31
2019-04-06T05:46:56.107Z,50.52
2019-04-06T05:49:28.690Z,50.36
2019-04-06T05:52:01.379Z,49.42
2019-04-06T05:54:32.820Z,47.26
2019-04-06T05:57:05.687Z,46.00
2019-04-06T05:59:40.924Z,43.94
2019-04-06T06:02:13.041Z,44.19
2019-04-06T06:04:44.467Z,41.92
2019-04-06T06:07:15.934Z,42.64
2019-04-06T06:09:47.389Z,43.17
2019-04-06T06:12:18.855Z,39.90
2019-04-06T06:14:50.290Z,39.17
2019-04-06T06:17:21.747Z,37.90
2019-04-06T06:19:53.184Z,36.80
2019-04-06T06:22:24.987Z,37.23
2019-04-06T06:24:56.781Z,36.20
2019-04-06T06:27:29.408Z,36.84
2019-04-06T06:30:01.043Z,35.92
2019-04-06T06:32:32.915Z,34.73
2019-04-06T06:35:05.696Z,32.10
2019-04-06T06:37:37.211Z,31.90
2019-04-06T06:40:13.159Z,32.85
2019-04-06T06:42:46.080Z,31.33
2019-04-06T06:45:18.445Z,31.69
2019-04-06T06:47:49.914Z,31.11
2019-04-06T06:50:21.349Z,31.24
2019-04-06T06:52:52.815Z,30.61
2019-04-06T06:55:26.535Z,30.73
2019-04-06T06:57:57.311Z,30.34
2019-04-06T07:00:28.746Z,29.96
2019-04-06T07:03:01.386Z,30.01
2019-04-06T07:05:32.884Z,29.35
2019-04-06T07:08:05.515Z,29.13
2019-04-06T07:10:36.981Z,28.99
2019-04-06T07:13:08.429Z,28.77
2019-04-06T07:15:39.899Z,29.05
2019-04-06T07:18:11.329Z,28.36
2019-04-06T07:20:43.256Z,28.04
2019-04-06T07:23:16.061Z,28.29
2019-04-06T07:25:56.868Z,27.58
2019-04-06T07:28:20.866Z,27.35
2019-04-06T07:30:53.467Z,27.25
2019-04-06T07:33:26.163Z,26.93
2019-04-06T07:35:58.527Z,27.10
2019-04-06T07:38:31.557Z,28.25
2019-04-06T07:41:10.425Z,27.53
2019-04-06T07:43:49.924Z,27.57
2019-04-06T07:46:21.836Z,26.79
2019-04-06T07:49:07.468Z,26.25
2019-04-06T07:51:29.697Z,26.92
2019-04-06T07:54:02.850Z,26.21
2019-04-06T07:56:35.756Z,26.73
2019-04-06T07:59:07.416Z,26.34
2019-04-06T08:01:38.945Z,26.41
2019-04-06T08:04:10.407Z,26.51
2019-04-06T08:06:44.862Z,26.32
2019-04-06T08:09:16.766Z,26.73
2019-04-06T08:11:50.368Z,26.37
2019-04-06T08:14:23.690Z,26.45
2019-04-06T08:16:56.556Z,26.01
2019-04-06T08:19:30.801Z,26.81
2019-04-06T08:22:05.852Z,26.32
2019-04-06T08:24:37.287Z,26.25
2019-04-06T08:27:08.938Z,25.80
2019-04-06T08:29:41.827Z,25.03
2019-04-06T08:32:15.456Z,25.16
2019-04-06T08:34:46.774Z,25.66
2019-04-06T08:37:18.403Z,26.72
2019-04-06T08:39:52.892Z,27.24
2019-04-06T08:42:26.761Z,28.48
2019-04-06T08:44:58.307Z,29.05
2019-04-06T08:47:30.393Z,29.59
2019-04-06T08:50:07.642Z,30.48
2019-04-06T08:52:39.467Z,31.45
2019-04-06T08:55:16.933Z,31.43
2019-04-06T08:57:54.836Z,32.86
2019-04-06T09:00:26.371Z,32.30
2019-04-06T09:02:58.740Z,32.81
2019-04-06T09:05:30.492Z,33.43
2019-04-06T09:08:03.811Z,33.17
2019-04-06T09:10:35.791Z,33.65
2019-04-06T09:13:08.892Z,33.78
2019-04-06T09:15:40.772Z,34.73
2019-04-06T09:18:13.842Z,34.67
2019-04-06T09:20:49.076Z,34.19
2019-04-06T09:23:22.235Z,34.43
2019-04-06T09:25:53.844Z,34.19
2019-04-06T09:28:25.597Z,34.56
2019-04-06T09:31:00.006Z,35.03
2019-04-06T09:33:33.087Z,35.19
2019-04-06T09:36:06.407Z,35.31
2019-04-06T09:38:38.704Z,35.37
2019-04-06T09:41:12.024Z,35.79
2019-04-06T09:43:43.795Z,35.74
2019-04-06T09:46:20.837Z,35.97
2019-04-06T09:48:54.897Z,35.66
2019-04-06T09:51:32.355Z,35.24
2019-04-06T09:54:21.952Z,35.67
2019-04-06T09:56:57.596Z,36.24
2019-04-06T09:59:40.961Z,37.02
2019-04-06T10:02:31.659Z,37.08
2019-04-06T10:05:07.817Z,35.96
2019-04-06T10:07:59.074Z,36.91
2019-04-06T10:10:31.782Z,36.56
2019-04-06T10:13:18.850Z,36.50
2019-04-06T10:16:07.230Z,36.14
2019-04-06T10:18:57.953Z,35.82
2019-04-06T10:21:47.724Z,34.88
2019-04-06T10:24:37.951Z,35.64
2019-04-06T10:27:38.584Z,35.07
2019-04-06T10:30:31.654Z,35.51
2019-04-06T10:33:23.398Z,34.93
2019-04-06T10:35:57.073Z,35.00
2019-04-06T10:38:51.411Z,34.76
2019-04-06T10:41:42.153Z,35.03
2019-04-06T10:44:21.594Z,35.22
2019-04-06T10:46:57.640Z,34.62
2019-04-06T10:49:41.211Z,35.48
2019-04-06T10:52:18.783Z,35.99
2019-04-06T10:55:09.301Z,35.23
2019-04-06T10:58:00.779Z,34.95
2019-04-06T11:00:34.259Z,34.41
2019-04-06T11:03:17.388Z,34.21
2019-04-06T11:06:09.995Z,34.83
2019-04-06T11:08:53.468Z,35.01
2019-04-06T11:11:32.540Z,35.38
2019-04-06T11:14:22.131Z,35.67
2019-04-06T11:17:05.164Z,34.68
2019-04-06T11:19:53.499Z,33.67
2019-04-06T11:22:26.832Z,33.62
2019-04-06T11:25:00.415Z,34.29
2019-04-06T11:27:49.913Z,34.67
2019-04-06T11:30:39.505Z,34.74
2019-04-06T11:33:21.709Z,33.55
2019-04-06T11:36:01.857Z,33.37
2019-04-06T11:38:52.684Z,34.14
2019-04-06T11:41:38.391Z,34.21
2019-04-06T11:44:14.750Z,34.17
2019-04-06T11:46:48.245Z,34.37
2019-04-06T11:49:25.279Z,34.18
2019-04-06T11:52:10.765Z,33.17
2019-04-06T11:54:50.964Z,33.66
2019-04-06T11:57:40.033Z,33.56
2019-04-06T12:00:26.594Z,33.26
2019-04-06T12:03:13.561Z,32.59
2019-04-06T12:05:58.320Z,32.86
2019-04-06T12:08:49.386Z,33.07
2019-04-06T12:11:22.785Z,32.95
2019-04-06T12:14:13.367Z,32.28
2019-04-06T12:16:46.899Z,32.79
2019-04-06T12:19:27.412Z,32.34
2019-04-06T12:22:04.955Z,31.81
2019-04-06T12:24:55.691Z,31.80
2019-04-06T12:27:40.492Z,31.54
2019-04-06T12:30:38.218Z,32.58
2019-04-06T12:33:26.895Z,31.57
2019-04-06T12:36:08.360Z,32.48
2019-04-06T12:38:59.519Z,32.25
2019-04-06T12:41:39.678Z,32.70
2019-04-06T12:44:20.350Z,32.28
2019-04-06T12:46:58.000Z,31.97
2019-04-06T12:49:40.197Z,31.87
2019-04-06T12:52:12.660Z,32.28
2019-04-06T12:54:59.257Z,31.86
2019-04-06T12:57:47.643Z,31.67
2019-04-06T13:00:29.756Z,32.72
2019-04-06T13:03:21.879Z,32.83
2019-04-06T13:06:00.209Z,31.06
2019-04-06T13:08:35.460Z,30.80
2019-04-06T13:11:08.953Z,31.47
2019-04-06T13:14:02.489Z,31.37
2019-04-06T13:16:35.848Z,31.18
2019-04-06T13:19:12.263Z,32.05
2019-04-06T13:21:55.844Z,32.21
2019-04-06T13:24:50.927Z,33.06
2019-04-06T13:27:29.903Z,33.39
2019-04-06T13:30:08.123Z,33.17
2019-04-06T13:32:41.485Z,34.09
2019-04-06T13:35:15.016Z,33.95
2019-04-06T13:37:50.214Z,33.22
2019-04-06T13:40:41.614Z,32.57
2019-04-06T13:43:24.280Z,33.01
2019-04-06T13:46:01.519Z,32.80
2019-04-06T13:48:41.060Z,32.94
2019-04-06T13:51:21.089Z,32.91
2019-04-06T13:53:55.682Z,33.26
2019-04-06T13:56:53.227Z,33.14
2019-04-06T13:59:35.421Z,33.91
2019-04-06T14:02:21.945Z,33.93
2019-04-06T14:05:14.943Z,33.36
2019-04-06T14:07:51.434Z,33.09
2019-04-06T14:10:33.726Z,33.74
2019-04-06T14:13:30.478Z,33.81
2019-04-06T14:16:29.859Z,33.96
2019-04-06T14:19:32.594Z,34.13
2019-04-06T14:22:14.593Z,33.68
2019-04-06T14:24:49.401Z,33.18
2019-04-06T14:27:42.421Z,33.65
2019-04-06T14:30:31.078Z,33.90
2019-04-06T14:33:21.008Z,33.62
2019-04-06T14:36:10.698Z,33.99
2019-04-06T14:38:52.062Z,33.85
2019-04-06T14:41:30.936Z,34.25
2019-04-06T14:44:28.987Z,34.48
2019-04-06T14:47:03.709Z,33.98
2019-04-06T14:49:56.694Z,33.95
2019-04-06T14:52:44.296Z,34.30
2019-04-06T14:55:33.556Z,34.74
2019-04-06T14:58:31.996Z,34.41
2019-04-06T15:01:08.442Z,34.52
2019-04-06T15:03:47.972Z,35.02
2019-04-06T15:06:32.512Z,34.60
2019-04-06T15:09:11.304Z,34.18
2019-04-06T15:12:11.300Z,34.57
2019-04-06T15:14:50.952Z,33.77
2019-04-06T15:17:42.620Z,34.49
2019-04-06T15:20:19.381Z,34.84
2019-04-06T15:23:17.369Z,34.45
2019-04-06T15:26:11.298Z,33.63
2019-04-06T15:29:02.258Z,34.02
2019-04-06T15:31:49.906Z,34.25
2019-04-06T15:34:29.341Z,34.81
2019-04-06T15:37:10.936Z,35.44
2019-04-06T15:39:48.220Z,36.23
2019-04-06T15:42:21.786Z,36.61
2019-04-06T15:45:14.959Z,36.53
2019-04-06T15:48:07.233Z,36.51
2019-04-06T15:50:40.566Z,36.71
2019-04-06T15:53:19.501Z,36.57
2019-04-06T15:55:57.093Z,36.51
2019-04-06T15:58:34.358Z,36.80
2019-04-06T16:01:33.142Z,37.13
2019-04-06T16:04:08.963Z,37.09
2019-04-06T16:06:49.612Z,37.06
2019-04-06T16:09:41.553Z,37.13
2019-04-06T16:12:23.841Z,37.35
2019-04-06T16:15:16.130Z,37.34
2019-04-06T16:18:11.727Z,37.48
2019-04-06T16:21:05.704Z,37.51
2019-04-06T16:24:02.172Z,37.58
2019-04-06T16:26:40.637Z,38.06
2019-04-06T16:29:31.845Z,38.02
2019-04-06T16:32:11.733Z,38.24
2019-04-06T16:34:44.587Z,38.21
2019-04-06T16:37:34.367Z,38.39
2019-04-06T16:40:11.873Z,38.62
2019-04-06T16:43:05.464Z,38.95
2019-04-06T16:45:45.421Z,38.98
2019-04-06T16:48:13.988Z,39.46
2019-04-06T16:51:05.064Z,39.48
2019-04-06T16:53:50.614Z,39.60
2019-04-06T16:56:30.175Z,39.70
2019-04-06T16:59:13.985Z,40.08
2019-04-06T17:02:06.344Z,39.97
2019-04-06T17:04:48.493Z,40.29
2019-04-06T17:07:31.212Z,40.30
2019-04-06T17:10:13.870Z,40.69
2019-04-06T17:12:47.291Z,40.69
2019-04-06T17:15:26.786Z,40.85
2019-04-06T17:18:07.011Z,41.99
2019-04-06T17:20:58.899Z,41.88
2019-04-06T17:23:41.371Z,42.11
2019-04-06T17:26:15.285Z,42.03
2019-04-06T17:28:58.947Z,42.45
2019-04-06T17:31:33.696Z,42.70
2019-04-06T17:34:16.559Z,42.71
2019-04-06T17:37:05.342Z,43.26
2019-04-06T17:39:47.682Z,43.55
2019-04-06T17:42:24.620Z,43.57
2019-04-06T17:45:00.260Z,44.00
2019-04-06T17:47:52.289Z,44.43
2019-04-06T17:50:42.216Z,44.54
2019-04-06T17:53:16.874Z,44.55
2019-04-06T17:56:09.232Z,44.87
2019-04-06T17:58:52.528Z,44.96
2019-04-06T18:01:42.492Z,45.50
2019-04-06T18:04:26.188Z,45.62
2019-04-06T18:07:25.384Z,45.96
2019-04-06T18:10:13.681Z,45.84
2019-04-06T18:12:48.839Z,46.21
2019-04-06T18:15:20.495Z,46.36
2019-04-06T18:18:03.849Z,46.97
2019-04-06T18:20:38.252Z,46.66
2019-04-06T18:23:14.621Z,47.36
2019-04-06T18:25:52.295Z,47.28
2019-04-06T18:28:27.346Z,47.59
2019-04-06T18:31:18.399Z,47.88
2019-04-06T18:33:51.951Z,48.46
2019-04-06T18:36:27.621Z,48.08
2019-04-06T18:39:01.725Z,48.13
2019-04-06T18:41:36.813Z,48.42
2019-04-06T18:44:09.774Z,48.61
2019-04-06T18:46:42.718Z,48.50
2019-04-06T18:49:17.285Z,48.17
2019-04-06T18:51:50.237Z,48.75
2019-04-06T18:54:22.202Z,49.02
2019-04-06T18:56:54.167Z,49.10
2019-04-06T18:59:26.153Z,49.88
2019-04-06T19:01:59.567Z,49.96
2019-04-06T19:04:33.944Z,50.06
2019-04-06T19:07:07.034Z,50.07
2019-04-06T19:09:39.581Z,50.52
2019-04-06T19:12:11.255Z,50.99
2019-04-06T19:14:44.359Z,51.45
2019-04-06T19:17:23.624Z,51.58
2019-04-06T19:19:53.993Z,51.91
2019-04-06T19:22:26.141Z,51.94
2019-04-06T19:25:01.865Z,52.53
2019-04-06T19:27:34.070Z,52.74
2019-04-06T19:30:11.059Z,52.79
2019-04-06T19:32:48.298Z,52.38
2019-04-06T19:35:22.391Z,53.07
2019-04-06T19:38:09.687Z,53.37
2019-04-06T19:40:42.770Z,53.46
2019-04-06T19:43:17.317Z,53.24
2019-04-06T19:45:49.701Z,53.70
2019-04-06T19:48:21.454Z,54.26
2019-04-06T19:50:53.269Z,54.62
2019-04-06T19:53:26.946Z,55.02
2019-04-06T19:55:58.572Z,55.14
2019-04-06T19:58:30.740Z,55.55
2019-04-06T20:01:03.141Z,55.50
2019-04-06T20:03:37.996Z,55.97
2019-04-06T20:06:08.862Z,55.76
2019-04-06T20:08:41.182Z,56.12
2019-04-06T20:11:12.793Z,56.49
2019-04-06T20:13:50.439Z,56.55
2019-04-06T20:16:22.889Z,58.01
2019-04-06T20:18:56.523Z,56.75
2019-04-06T20:21:31.812Z,57.30
2019-04-06T20:24:06.121Z,56.86
2019-04-06T20:26:38.402Z,57.58
2019-04-06T20:29:12.656Z,58.77
2019-04-06T20:31:49.735Z,58.60
2019-04-06T20:34:25.485Z,58.15
2019-04-06T20:37:01.875Z,58.78
2019-04-06T20:39:34.741Z,59.32
2019-04-06T20:42:06.603Z,59.34
2019-04-06T20:44:38.271Z,59.39
2019-04-06T20:47:11.530Z,59.58
2019-04-06T20:49:43.559Z,61.23
2019-04-06T20:52:19.842Z,61.32
2019-04-06T20:54:54.853Z,60.90
2019-04-06T20:57:26.546Z,61.05
2019-04-06T20:59:59.965Z,62.95
2019-04-06T21:02:32.998Z,67.70
2019-04-06T21:05:09.874Z,63.41
2019-04-06T21:07:42.051Z,57.58
2019-04-06T21:10:15.501Z,50.17
2019-04-06T21:12:47.606Z,50.17
2019-04-06T21:15:21.383Z,50.40
2019-04-06T21:17:56.480Z,51.42
2019-04-06T21:20:28.952Z,51.93
2019-04-06T21:23:02.865Z,52.41
2019-04-06T21:25:38.642Z,53.17
2019-04-06T21:28:19.828Z,53.86
2019-04-06T21:30:59.726Z,54.30
2019-04-06T21:33:34.166Z,54.33
2019-04-06T21:36:07.565Z,55.03
2019-04-06T21:38:41.145Z,56.03
2019-04-06T21:41:14.066Z,57.09
2019-04-06T21:43:46.033Z,57.59
2019-04-06T21:46:17.870Z,58.90
2019-04-06T21:48:50.574Z,59.77
2019-04-06T21:51:25.270Z,60.54
2019-04-06T21:53:57.518Z,60.65
2019-04-06T21:56:30.561Z,61.12
2019-04-06T21:59:04.330Z,61.68
2019-04-06T22:01:38.340Z,66.53
2019-04-06T22:04:22.605Z,63.67
2019-04-06T22:06:43.344Z,57.49
2019-04-06T22:09:16.481Z,51.47
2019-04-06T22:11:48.373Z,51.41
2019-04-06T22:14:20.215Z,52.06
2019-04-06T22:16:52.796Z,52.62
2019-04-06T22:19:25.255Z,53.56
2019-04-06T22:21:58.672Z,54.44
2019-04-06T22:24:31.740Z,55.02
2019-04-06T22:27:08.340Z,56.02
2019-04-06T22:29:40.669Z,57.18
2019-04-06T22:32:14.067Z,58.43
2019-04-06T22:34:47.582Z,58.85
2019-04-06T22:37:20.669Z,58.97
2019-04-06T22:39:53.668Z,59.77
2019-04-06T22:42:25.425Z,60.41
2019-04-06T22:44:57.736Z,61.97
2019-04-06T22:47:31.336Z,67.14
2019-04-06T22:50:06.076Z,63.14
2019-04-06T22:52:38.902Z,56.52
2019-04-06T22:55:11.621Z,52.10
2019-04-06T22:57:43.383Z,51.57
2019-04-06T23:00:27.132Z,51.97
2019-04-06T23:02:58.879Z,53.16
2019-04-06T23:05:41.598Z,55.04
2019-04-06T23:08:13.414Z,55.91
2019-04-06T23:10:46.606Z,56.94
2019-04-06T23:13:20.277Z,57.61
2019-04-06T23:15:53.308Z,58.35
2019-04-06T23:18:26.009Z,58.91
2019-04-06T23:20:57.747Z,58.72
2019-04-06T23:23:29.481Z,59.94
2019-04-06T23:26:02.699Z,60.69
2019-04-06T23:28:34.557Z,60.82
2019-04-06T23:31:06.484Z,60.86
2019-04-06T23:33:39.658Z,62.53
2019-04-06T23:36:13.518Z,67.69
2019-04-06T23:38:46.495Z,64.06
2019-04-06T23:41:21.807Z,58.48
2019-04-06T23:43:56.339Z,52.57
2019-04-06T23:46:29.147Z,52.65
2019-04-06T23:49:03.686Z,53.36
2019-04-06T23:51:35.885Z,54.37
2019-04-06T23:54:08.801Z,55.32
2019-04-06T23:56:41.714Z,56.05
2019-04-06T23:59:15.069Z,57.43
